EDT,Max TemperatureF,Mean TemperatureF,Min TemperatureF,Max Dew PointF,MeanDew PointF,Min DewpointF,Max Humidity, Mean Humidity, Min Humidity, Max Sea Level PressureIn, Mean Sea Level PressureIn, Min Sea Level PressureIn, Max VisibilityMiles, Mean VisibilityMiles, Min VisibilityMiles, Max Wind SpeedMPH, Mean Wind SpeedMPH, Max Gust SpeedMPH,PrecipitationIn, CloudCover, Events, WindDirDegrees
2006-7-1,87,74,62,66,60,56,90,60,37,30.19,30.14,30.10,10,9,7,13,4,20,0.00,3,,215
2006-7-2,93,82,70,70,67,64,81,65,42,30.11,30.07,30.00,10,7,5,15,8,21,0.00,5,Thunderstorm,229
2006-7-3,90,81,73,70,68,65,87,65,46,30.10,30.05,30.00,10,8,6,13,4,17,0.00,5,,255
2006-7-4,93,83,73,72,69,67,84,69,43,30.02,29.95,29.89,9,6,4,16,5,22,0.00,6,Rain-Thunderstorm,230
2006-7-5,84,78,73,74,71,68,94,86,65,29.97,29.93,29.90,10,5,1,12,5,,0.11,8,Rain,231
2006-7-6,80,72,64,72,64,56,100,81,47,30.17,30.00,29.92,10,6,1,10,5,20,1.37,7,Rain,342
2006-7-7,81,68,57,61,57,54,93,64,42,30.26,30.23,30.18,10,10,10,12,5,16,0.00,3,,342
2006-7-8,82,72,61,63,60,58,90,69,45,30.25,30.17,30.10,10,10,10,8,3,,0.00,6,,82
2006-7-9,82,72,62,64,61,59,93,66,44,30.10,30.06,29.99,10,10,8,13,4,17,0.00,3,,196
2006-7-10,87,75,66,71,66,62,90,69,51,30.07,30.03,30.00,10,7,5,12,5,,0.00,3,,195
2006-7-11,90,81,73,73,70,67,82,67,49,30.11,30.09,30.06,7,5,4,9,5,,0.00,5,,201
2006-7-12,91,83,75,75,72,71,87,73,52,30.09,30.04,29.99,7,5,2,12,7,16,0.19,7,Rain-Thunderstorm,206
2006-7-13,87,78,73,73,72,71,94,79,65,29.99,29.96,29.93,10,7,3,14,6,,0.01,7,Rain,256
2006-7-14,88,79,71,73,71,67,94,74,55,30.01,29.99,29.95,10,8,4,12,4,20,0.00,5,,103
2006-7-15,91,82,73,75,73,70,96,80,53,29.97,29.93,29.87,9,5,2,15,3,,0.00,6,Rain,251
2006-7-16,93,82,71,70,65,59,81,57,32,30.03,29.99,29.95,10,10,10,15,7,22,0.00,1,,334
2006-7-17,98,84,71,71,68,64,87,60,34,30.04,29.99,29.95,10,10,7,12,4,,0.00,1,,276
2006-7-18,99,86,73,75,69,63,88,61,35,30.05,29.98,29.94,10,8,4,17,4,31,0.00,4,Rain-Thunderstorm,283
2006-7-19,91,80,70,72,66,62,87,63,39,30.13,30.08,30.02,10,9,7,16,4,20,0.00,3,,72
2006-7-20,91,82,74,73,71,68,91,73,49,30.14,30.07,29.99,8,7,4,10,6,,0.00,4,Rain,113
2006-7-21,93,84,75,73,71,66,90,69,42,29.98,29.91,29.84,9,6,5,12,5,,0.00,3,,242
2006-7-22,90,81,73,75,72,69,96,83,53,29.83,29.75,29.68,10,7,2,18,5,28,0.10,7,Rain-Thunderstorm,198
2006-7-23,84,76,66,72,64,58,100,72,44,29.96,29.87,29.78,10,9,5,9,4,,0.03,5,,294
2006-7-24,88,76,63,67,60,54,93,62,32,30.05,30.02,29.96,10,10,10,9,4,,0.00,2,,238
2006-7-25,87,78,69,70,67,63,90,72,46,30.07,30.03,29.99,10,9,6,10,5,,0.00,6,,188
2006-7-26,89,80,71,72,70,67,96,74,51,30.01,29.97,29.92,10,9,6,12,4,,0.00,3,Fog,184
2006-7-27,95,85,74,73,70,66,93,67,41,30.00,29.97,29.94,10,8,5,15,5,18,T,5,Rain-Thunderstorm,212
2006-7-28,95,84,72,74,70,65,93,67,41,29.99,29.97,29.94,10,9,2,31,9,43,0.05,5,Rain,253
2006-7-29,94,84,73,72,68,64,74,59,44,30.00,29.94,29.87,10,10,9,14,6,21,0.00,3,,280
2006-7-30,96,85,74,73,70,67,87,63,39,29.88,29.85,29.81,10,8,5,15,6,20,0.00,4,,293
2006-7-31,97,85,73,75,71,69,87,65,42,29.94,29.89,29.85,10,8,5,16,5,20,0.00,3,,281